createdAt,value
2023-04-19T00:02:26.654Z,12.50
2023-04-19T00:07:28.845Z,13.80
2023-04-19T00:12:30.961Z,12.98
2023-04-19T00:17:34.083Z,14.70
2023-04-19T00:22:36.450Z,15.27
2023-04-19T00:27:38.531Z,13.30
2023-04-19T00:32:40.642Z,15.57
2023-04-19T00:37:42.798Z,16.13
2023-04-19T00:42:48.495Z,18.02
2023-04-19T00:47:51.041Z,18.15
2023-04-19T00:52:56.349Z,19.17
2023-04-19T00:58:00.733Z,18.15
2023-04-19T01:03:03.875Z,18.80
2023-04-19T01:08:06.354Z,17.75
2023-04-19T01:13:08.495Z,15.68
2023-04-19T01:18:14.136Z,18.05
2023-04-19T01:23:16.889Z,17.38
2023-04-19T01:28:19.003Z,17.98
2023-04-19T01:33:21.964Z,15.23
2023-04-19T01:38:24.602Z,15.43
2023-04-19T01:43:26.777Z,17.13
2023-04-19T01:48:29.274Z,14.70
2023-04-19T01:53:31.402Z,14.70
2023-04-19T01:58:33.554Z,16.17
2023-04-19T02:03:36.034Z,17.48
2023-04-19T02:08:38.813Z,16.13
2023-04-19T02:13:41.581Z,17.50
2023-04-19T02:18:43.753Z,14.30
2023-04-19T02:23:46.579Z,15.60
2023-04-19T02:28:50.646Z,17.58
2023-04-19T02:33:52.786Z,21.73
2023-04-19T02:38:54.952Z,24.23
2023-04-19T02:43:57.056Z,18.80
2023-04-19T02:49:01.268Z,21.63
2023-04-19T02:54:03.555Z,16.70
2023-04-19T02:59:06.278Z,15.50
2023-04-19T03:04:09.537Z,18.08
2023-04-19T03:09:12.076Z,17.70
2023-04-19T03:14:14.551Z,16.38
2023-04-19T03:19:16.901Z,22.55
2023-04-19T03:24:31.109Z,23.88
2023-04-19T03:29:38.710Z,21.50
2023-04-19T03:34:46.707Z,19.73
2023-04-19T03:39:51.255Z,18.42
2023-04-19T03:44:59.670Z,16.13
2023-04-19T03:50:04.702Z,22.10
2023-04-19T03:55:10.156Z,19.45
2023-04-19T04:00:15.824Z,23.33
2023-04-19T04:05:18.032Z,18.88
2023-04-19T04:10:20.402Z,19.17
2023-04-19T04:15:23.043Z,19.30
2023-04-19T04:20:28.632Z,15.82
2023-04-19T04:25:39.309Z,17.77
2023-04-19T04:30:46.085Z,20.05
2023-04-19T04:35:48.738Z,17.33
2023-04-19T04:40:57.027Z,19.13
2023-04-19T04:45:59.542Z,18.30
2023-04-19T04:51:06.203Z,23.95
2023-04-19T04:56:10.293Z,22.10
2023-04-19T05:01:12.478Z,22.38
2023-04-19T05:06:16.967Z,27.45
2023-04-19T05:11:20.491Z,27.85
2023-04-19T05:16:24.517Z,23.25
2023-04-19T05:21:29.646Z,20.65
2023-04-19T05:26:32.256Z,25.13
2023-04-19T05:31:35.395Z,27.60
2023-04-19T05:36:47.081Z,21.10
2023-04-19T05:41:50.836Z,26.77
2023-04-19T05:46:53.126Z,24.45
2023-04-19T05:52:15.390Z,27.02
2023-04-19T05:57:28.026Z,27.92
2023-04-19T06:02:31.060Z,23.38
2023-04-19T06:07:36.046Z,19.70
2023-04-19T06:12:42.594Z,26.27
2023-04-19T06:17:44.666Z,22.60
2023-04-19T06:22:46.859Z,23.38
2023-04-19T06:27:49.020Z,22.88
2023-04-19T06:32:51.169Z,24.58
2023-04-19T06:37:53.353Z,22.67
2023-04-19T06:42:55.988Z,24.25
2023-04-19T06:47:58.391Z,23.30
2023-04-19T06:53:01.167Z,23.88
2023-04-19T06:58:04.336Z,24.45
2023-04-19T07:03:06.609Z,25.65
2023-04-19T07:08:08.927Z,20.25
2023-04-19T07:13:11.805Z,22.73
2023-04-19T07:18:16.154Z,20.40
2023-04-19T07:23:19.444Z,23.85
2023-04-19T07:28:21.601Z,23.27
2023-04-19T07:33:27.455Z,25.77
2023-04-19T07:38:30.439Z,25.13
2023-04-19T07:43:32.724Z,23.65
2023-04-19T07:48:34.783Z,21.60
2023-04-19T07:53:37.776Z,21.02
2023-04-19T07:58:41.400Z,24.75
2023-04-19T08:03:43.839Z,24.02
2023-04-19T08:08:46.622Z,23.02
2023-04-19T08:14:02.690Z,25.23
2023-04-19T08:19:08.799Z,22.40
2023-04-19T08:24:11.220Z,23.70
2023-04-19T08:29:13.357Z,22.88
2023-04-19T08:34:15.544Z,22.17
2023-04-19T08:39:29.139Z,23.40
2023-04-19T08:44:45.063Z,24.40
2023-04-19T08:50:11.116Z,23.73
2023-04-19T08:55:20.775Z,20.67
2023-04-19T09:00:23.007Z,19.75
2023-04-19T09:05:25.603Z,21.45
2023-04-19T09:10:27.902Z,19.63
2023-04-19T09:15:41.720Z,20.92
2023-04-19T09:20:44.784Z,18.80
2023-04-19T09:26:21.942Z,20.90
2023-04-19T09:31:39.066Z,18.95
2023-04-19T09:36:46.915Z,21.40
2023-04-19T09:41:53.756Z,17.75
2023-04-19T09:46:56.064Z,17.88
2023-04-19T09:51:58.365Z,16.77
2023-04-19T09:57:01.886Z,16.88
2023-04-19T10:02:06.724Z,15.55
2023-04-19T10:07:29.036Z,16.45
2023-04-19T10:12:52.200Z,16.05
2023-04-19T10:17:55.523Z,16.77
2023-04-19T10:22:57.848Z,13.75
2023-04-19T10:27:59.971Z,15.07
2023-04-19T10:33:03.991Z,13.85
2023-04-19T10:38:16.585Z,14.57
2023-04-19T10:43:19.724Z,14.65
2023-04-19T10:48:32.197Z,14.65
2023-04-19T10:53:47.122Z,13.35
2023-04-19T10:59:01.569Z,14.93
2023-04-19T11:04:04.168Z,12.68
2023-04-19T11:09:07.295Z,12.70
2023-04-19T11:14:10.051Z,11.80
2023-04-19T11:19:16.402Z,12.30
2023-04-19T11:24:19.091Z,9.00
2023-04-19T11:29:21.900Z,10.93
2023-04-19T11:34:24.277Z,10.77
2023-04-19T11:39:26.630Z,9.23
2023-04-19T11:44:28.730Z,10.02
2023-04-19T11:49:33.870Z,10.02
2023-04-19T11:54:36.003Z,9.10
2023-04-19T11:59:39.081Z,10.85
2023-04-19T12:04:41.685Z,13.43
2023-04-19T12:09:44.014Z,15.90
2023-04-19T12:14:52.858Z,16.58
2023-04-19T12:19:54.918Z,17.85
2023-04-19T12:24:57.706Z,17.65
2023-04-19T12:29:59.798Z,17.42
2023-04-19T12:35:01.834Z,15.57
2023-04-19T12:40:04.312Z,14.40
2023-04-19T12:45:06.909Z,15.85
2023-04-19T12:50:09.868Z,13.75
2023-04-19T12:55:12.090Z,11.60
2023-04-19T13:00:15.742Z,12.80
2023-04-19T13:05:17.879Z,12.52
2023-04-19T13:10:21.110Z,12.38
2023-04-19T13:15:23.293Z,11.65
2023-04-19T13:20:25.473Z,12.77
2023-04-19T13:25:27.583Z,12.75
2023-04-19T13:30:29.789Z,12.68
2023-04-19T13:35:31.921Z,13.93
2023-04-19T13:40:34.225Z,12.40
2023-04-19T13:45:36.378Z,15.18
2023-04-19T13:50:38.557Z,13.73
2023-04-19T13:55:41.288Z,15.07
2023-04-19T14:00:44.001Z,13.57
2023-04-19T14:05:46.233Z,14.45
2023-04-19T14:10:49.636Z,12.45
2023-04-19T14:15:51.861Z,12.18
2023-04-19T14:20:54.737Z,13.02
2023-04-19T14:25:56.864Z,14.13
2023-04-19T14:30:58.983Z,13.00
2023-04-19T14:36:01.566Z,12.93
2023-04-19T14:41:03.738Z,12.45
2023-04-19T14:46:07.446Z,12.63
2023-04-19T14:51:09.485Z,12.68
2023-04-19T14:56:11.584Z,12.25
2023-04-19T15:01:14.575Z,12.88
2023-04-19T15:06:17.017Z,11.35
2023-04-19T15:11:19.133Z,11.70
2023-04-19T15:16:21.257Z,12.43
2023-04-19T15:21:24.786Z,12.10
2023-04-19T15:26:27.064Z,12.52
2023-04-19T15:31:29.181Z,10.80
2023-04-19T15:36:31.978Z,12.18
2023-04-19T15:41:34.066Z,10.50
2023-04-19T15:46:36.254Z,12.05
2023-04-19T15:51:39.052Z,13.27
2023-04-19T15:56:41.542Z,11.90
2023-04-19T16:01:43.750Z,11.80
2023-04-19T16:06:45.881Z,11.43
2023-04-19T16:11:47.989Z,13.20
2023-04-19T16:16:50.275Z,11.75
2023-04-19T16:21:52.453Z,12.27
2023-04-19T16:26:54.501Z,13.55
2023-04-19T16:31:57.169Z,11.75
2023-04-19T16:36:59.308Z,12.32
2023-04-19T16:42:01.984Z,11.32
2023-04-19T16:47:04.052Z,11.77
2023-04-19T16:52:06.165Z,12.32
2023-04-19T16:57:08.936Z,10.35
2023-04-19T17:02:11.528Z,10.93
2023-04-19T17:07:13.817Z,10.23
2023-04-19T17:12:15.972Z,10.90
2023-04-19T17:17:21.192Z,11.02
2023-04-19T17:22:23.394Z,11.30
2023-04-19T17:27:25.511Z,10.63
2023-04-19T17:32:27.689Z,11.13
2023-04-19T17:37:30.000Z,10.23
2023-04-19T17:42:32.056Z,9.73
2023-04-19T17:47:34.101Z,11.45
2023-04-19T17:52:36.277Z,10.88
2023-04-19T17:57:38.420Z,11.80
2023-04-19T18:02:40.969Z,11.48
2023-04-19T18:07:43.345Z,12.20
2023-04-19T18:12:45.426Z,11.05
2023-04-19T18:17:47.665Z,11.25
2023-04-19T18:22:50.693Z,9.20
2023-04-19T18:27:52.829Z,13.60
2023-04-19T18:32:55.128Z,11.95
2023-04-19T18:37:57.833Z,12.65
2023-04-19T18:42:59.891Z,13.43
2023-04-19T18:48:02.090Z,13.52
2023-04-19T18:53:04.384Z,11.88
2023-04-19T18:58:07.498Z,13.07
2023-04-19T19:03:33.609Z,12.85
2023-04-19T19:08:32.170Z,14.13
2023-04-19T19:13:34.248Z,12.40
2023-04-19T19:18:36.585Z,11.75
2023-04-19T19:23:42.505Z,14.77
2023-04-19T19:28:44.981Z,14.45
2023-04-19T19:33:53.893Z,14.93
2023-04-19T19:39:11.025Z,14.20
2023-04-19T19:44:13.226Z,14.27
2023-04-19T19:49:15.615Z,15.68
2023-04-19T19:54:17.936Z,15.00
2023-04-19T19:59:20.261Z,15.13
2023-04-19T20:04:23.041Z,15.70
2023-04-19T20:09:27.773Z,16.65
2023-04-19T20:14:30.701Z,14.88
2023-04-19T20:19:32.890Z,13.77
2023-04-19T20:24:35.070Z,15.52
2023-04-19T20:29:37.404Z,14.13
2023-04-19T20:34:39.912Z,16.00
2023-04-19T20:39:41.997Z,16.67
2023-04-19T20:44:44.699Z,15.60
2023-04-19T20:49:46.939Z,16.33
2023-04-19T20:54:49.080Z,13.32
2023-04-19T20:59:51.600Z,18.20
2023-04-19T21:04:53.838Z,13.82
2023-04-19T21:09:55.881Z,15.05
2023-04-19T21:14:58.179Z,15.85
2023-04-19T21:20:02.675Z,14.60
2023-04-19T21:25:05.938Z,16.88
2023-04-19T21:30:09.535Z,17.05
2023-04-19T21:35:11.653Z,12.70
2023-04-19T21:40:14.078Z,17.02
2023-04-19T21:45:16.297Z,15.90
2023-04-19T21:50:18.752Z,16.10
2023-04-19T21:55:20.964Z,14.25
2023-04-19T22:00:24.254Z,16.05
2023-04-19T22:05:26.459Z,13.85
2023-04-19T22:10:28.773Z,15.63
2023-04-19T22:15:31.860Z,15.73
2023-04-19T22:20:34.745Z,15.65
2023-04-19T22:25:37.298Z,12.30
2023-04-19T22:30:39.504Z,16.02
2023-04-19T22:35:41.905Z,13.57
2023-04-19T22:40:43.983Z,16.60
2023-04-19T22:45:47.994Z,12.05
2023-04-19T22:50:52.635Z,16.33
2023-04-19T22:55:54.791Z,16.95
2023-04-19T23:00:56.975Z,17.20
2023-04-19T23:05:59.303Z,16.30
2023-04-19T23:11:01.459Z,17.52
2023-04-19T23:16:04.482Z,17.92
2023-04-19T23:21:06.888Z,16.95
2023-04-19T23:26:09.858Z,18.77
2023-04-19T23:31:12.358Z,13.57
2023-04-19T23:36:14.641Z,19.13
2023-04-19T23:41:17.002Z,16.75
2023-04-19T23:46:19.135Z,16.77
2023-04-19T23:51:21.421Z,17.40
2023-04-19T23:56:23.521Z,18.33
